Flight Track Log - Related Links

Times and Time Zones

All times are in EDT time to prevent confusion due to time zone crossing. See the N225SB flight status page for this flight to view local times or setup timezone preferences in your user account.

Time Position Orientation Groundspeed Altitude Reporting Facility
EDT Latitude Longitude Course Direction KTS MPH feet Rate Location/Type
Fri 05:30:28 PM 33.8167 -84.5667 68° East 192 221 3,500  Level Atlanta TRACON
Fri 05:31:22 PM 33.8333 -84.5167 68° East 233 268 6,400 2,698 Climbing Atlanta TRACON
Fri 05:32:57 PM 33.8481 -84.3989 81° East 250 288 10,200 1,935 Climbing Atlanta Center
Fri 05:33:57 PM 33.8525 -84.3064 87° East 260 299 11,400 950 Climbing Atlanta Center
Fri 05:34:57 PM 33.8589 -84.1939 86° East 310 357 12,100 900 Climbing Atlanta Center
Fri 05:35:57 PM 33.8611 -84.0664 89° East 353 406 13,200 1,050 Climbing Atlanta Center
Fri 05:36:57 PM 33.8653 -83.9336 88° East 391 450 14,200 1,050 Climbing Atlanta Center
Fri 05:37:57 PM 33.8669 -83.7961 89° East 407 468 15,300 1,150 Climbing Atlanta Center
Fri 05:38:57 PM 33.8689 -83.6586 89° East 407 468 16,500 1,400 Climbing Atlanta Center
Fri 05:39:57 PM 33.8767 -83.5208 86° East 407 468 18,100 1,600 Climbing Atlanta Center
Fri 05:40:57 PM 33.8864 -83.3783 85° East 394 453 19,700 1,550 Climbing Atlanta Center
Fri 05:41:57 PM 33.9358 -83.2700 61° Northeast 372 428 21,200 1,550 Climbing Atlanta Center
Fri 05:42:57 PM 33.9956 -83.1644 56° Northeast 367 422 22,800 1,550 Climbing Atlanta Center
Fri 05:43:57 PM 34.0511 -83.0561 58° Northeast 374 430 24,300 1,350 Climbing Atlanta Center
Fri 05:44:57 PM 34.1108 -82.9450 57° Northeast 380 437 25,500 1,100 Climbing Atlanta Center
Fri 05:45:57 PM 34.1681 -82.8311 59° Northeast 390 449 26,500 1,000 Climbing Atlanta Center
Fri 05:46:57 PM 34.2317 -82.7147 57° Northeast 406 467 27,500 1,000 Climbing Atlanta Center
Fri 05:47:57 PM 34.2972 -82.5956 56° Northeast 412 474 28,500 850 Climbing Atlanta Center
Fri 05:48:57 PM 34.3583 -82.4861 56° Northeast 422 486 29,200 700 Climbing Atlanta Center
Fri 05:49:57 PM 34.4236 -82.3617 58° Northeast 432 497 29,900 750 Climbing Atlanta Center
Fri 05:50:57 PM 34.4886 -82.2344 58° Northeast 437 503 30,700 750 Climbing Atlanta Center
Fri 05:51:57 PM 34.5575 -82.1092 56° Northeast 437 503 31,400 700 Climbing Atlanta Center
Fri 05:52:57 PM 34.6244 -81.9814 57° Northeast 437 503 32,100 700 Climbing Atlanta Center
Fri 05:53:57 PM 34.6889 -81.8536 58° Northeast 432 497 32,800 700 Climbing Atlanta Center
Fri 05:54:57 PM 34.7556 -81.7281 57° Northeast 432 497 33,500 700 Climbing Atlanta Center
Fri 05:55:57 PM 34.8281 -81.5894 57° Northeast 437 503 34,200 750 Climbing Atlanta Center
Fri 05:56:57 PM 34.8900 -81.4608 60° Northeast 437 503 35,000 750 Climbing Atlanta Center
Fri 05:57:57 PM 34.9561 -81.3322 58° Northeast 431 496 35,700 700 Climbing Atlanta Center
Fri 05:58:57 PM 35.0178 -81.2058 59° Northeast 436 502 36,400 650 Climbing Atlanta Center
Fri 05:59:57 PM 35.0839 -81.0792 57° Northeast 436 502 37,000 550 Climbing Atlanta Center
Fri 06:00:57 PM 35.1475 -80.9550 58° Northeast 436 502 37,500 500 Climbing Atlanta Center
Fri 06:01:57 PM 35.2089 -80.8283 59° Northeast 436 502 38,000 500 Climbing Atlanta Center
Fri 06:02:57 PM 35.2744 -80.7011 58° Northeast 436 502 38,500 500 Climbing Atlanta Center
Fri 06:05:09 PM 35.4094 -80.4264 59° Northeast 424 488 39,600 497 Climbing Washington Center
Fri 06:06:10 PM 35.4686 -80.3050 59° Northeast 424 488 40,100 504 Climbing Washington Center
Fri 06:07:08 PM 35.5317 -80.1836 57° Northeast 419 482 40,600 458 Climbing Washington Center
Fri 06:08:08 PM 35.5772 -80.0842 61° Northeast 414 476 41,000 198 Climbing Washington Center
Fri 06:09:09 PM 35.6444 -79.9575 57° Northeast 408 470 41,000  Level Washington Center
Fri 06:10:09 PM 35.7053 -79.8356 58° Northeast 408 470 41,000  Level Washington Center
Fri 06:11:10 PM 35.7703 -79.7086 58° Northeast 420 483 41,000  Level Washington Center
Fri 06:12:08 PM 35.8394 -79.5736 58° Northeast 427 491 41,000  Level Washington Center
Fri 06:13:09 PM 35.9078 -79.4669 52° Northeast 432 497 41,000  Level Washington Center
Fri 06:14:09 PM 35.9822 -79.3500 52° Northeast 432 497 41,000  Level Washington Center
Fri 06:15:10 PM 36.0550 -79.2300 53° Northeast 437 503 41,000  Level Washington Center
Fri 06:16:08 PM 36.1336 -79.1075 52° Northeast 437 503 41,000  Level Washington Center
Fri 06:17:08 PM 36.2103 -78.9850 52° Northeast 442 509 41,000  Level Washington Center
Fri 06:18:09 PM 36.2867 -78.8594 53° Northeast 447 514 41,000  Level Washington Center
Fri 06:19:08 PM 36.3608 -78.7386 53° Northeast 447 514 41,000  Level Washington Center
Fri 06:20:08 PM 36.4394 -78.6128 52° Northeast 447 514 41,000  Level Washington Center
Fri 06:21:09 PM 36.5217 -78.4894 50° Northeast 447 514 41,000  Level Washington Center
Fri 06:22:10 PM 36.6139 -78.3839 43° Northeast 447 514 41,000  Level Washington Center
Fri 06:23:08 PM 36.7039 -78.2758 44° Northeast 447 514 41,000  Level Washington Center
Fri 06:24:09 PM 36.8003 -78.1625 43° Northeast 454 522 41,000  Level Washington Center
Fri 06:25:10 PM 36.8964 -78.0592 41° Northeast 454 522 41,000  Level Washington Center
Fri 06:26:10 PM 37.0119 -78.0239 14° North 441 507 41,000  Level Washington Center
Fri 06:27:08 PM 37.1217 -78.0586 346° North 385 443 41,000  Level Washington Center
Fri 06:28:08 PM 37.2331 -78.0125 18° North 405 466 41,000 50 Level Washington Center
Fri 06:29:09 PM 37.3231 -77.8953 46° Northeast 412 474 41,100 50 Climbing Washington Center
Fri 06:30:09 PM 37.4089 -77.7725 49° Northeast 435 501 41,100 -50 Level Washington Center
Fri 06:31:10 PM 37.4925 -77.6439 51° Northeast 453 521 41,000 -50 Descending Washington Center
Fri 06:32:08 PM 37.5758 -77.5153 51° Northeast 469 540 41,000  Level Washington Center
Fri 06:33:08 PM 37.6614 -77.3914 49° Northeast 469 540 41,000  Level Washington Center
Fri 06:34:08 PM 37.7444 -77.2619 51° Northeast 469 540 41,000  Level Washington Center
Fri 06:35:09 PM 37.8256 -77.1297 52° Northeast 469 540 41,000  Level Washington Center
Fri 06:36:10 PM 37.9083 -76.9997 51° Northeast 469 540 41,000  Level Washington Center
Fri 06:37:10 PM 37.9911 -76.8697 51° Northeast 469 540 41,000  Level Washington Center
Fri 06:38:10 PM 38.0758 -76.7392 50° Northeast 469 540 41,000  Level Washington Center
Fri 06:39:08 PM 38.1586 -76.6083 51° Northeast 469 540 41,000 -555 Level Washington Center
Fri 06:40:09 PM 38.2408 -76.4772 51° Northeast 469 540 39,900 -1,525 Descending Washington Center
Fri 06:41:10 PM 38.3375 -76.3542 45° Northeast 475 547 37,900 -2,067 Descending Washington Center
Fri 06:42:08 PM 38.4550 -76.2467 36° Northeast 489 563 35,800 -2,237 Descending Washington Center
Fri 06:43:08 PM 38.5681 -76.1414 36° Northeast 499 574 33,500 -2,083 Descending Washington Center
Fri 06:44:09 PM 38.6789 -76.0411 35° Northeast 499 574 31,600 -1,869 Descending Washington Center
Fri 06:45:10 PM 38.7878 -75.9431 35° Northeast 487 560 29,700 -1,916 Descending Washington Center
Fri 06:46:08 PM 38.8922 -75.8397 38° Northeast 482 555 27,800 -1,513 Descending Washington Center
Fri 06:47:09 PM 39.0008 -75.7386 36° Northeast 477 549 26,700 -1,033 Descending Washington Center
Fri 06:48:10 PM 39.1092 -75.6369 36° Northeast 477 549 25,700 -1,311 Descending Washington Center
Fri 06:49:08 PM 39.2239 -75.5272 37° Northeast 490 564 24,100 -864 Descending Washington Center
Fri 06:50:08 PM 39.3322 -75.4278 35° Northeast 495 570 24,000 -496 Descending Washington Center
Fri 06:51:09 PM 39.4403 -75.3336 34° Northeast 482 555 23,100 -1,672 Descending Washington Center
Fri 06:52:10 PM 39.5464 -75.2389 35° Northeast 472 543 20,600 -2,777 Descending Washington Center
Fri 06:53:10 PM 39.6606 -75.1306 36° Northeast 462 532 17,500 -1,950 Descending Washington Center
Fri 06:54:10 PM 39.7497 -75.0517 34° Northeast 428 493 16,700 -1,322 Descending Washington Center
Fri 06:55:08 PM 39.8267 -74.9864 33° Northeast 373 429 14,900 -1,516 Descending Washington Center
Fri 06:57:16 PM 39.9833 -74.8000 42° Northeast 311 358 12,000 -1,279 Descending New York TRACON
Fri 06:58:11 PM 40.0333 -74.7333 46° Northeast 302 348 11,000 -1,043 Descending New York TRACON
Fri 06:59:11 PM 40.1000 -74.6500 44° Northeast 305 351 10,000 -450 Descending New York TRACON
Fri 07:00:11 PM 40.1500 -74.5667 52° Northeast 295 339 10,100 50 Climbing New York TRACON
Fri 07:01:10 PM 40.2000 -74.5000 46° Northeast 295 339 10,100 -650 Level New York TRACON
Fri 07:02:11 PM 40.2667 -74.4167 44° Northeast 311 358 8,800 -1,488 Descending New York TRACON
Fri 07:03:11 PM 40.3333 -74.3333 44° Northeast 290 334 7,100 -857 Descending New York TRACON
Fri 07:04:10 PM 40.3833 -74.2833 37° Northeast 255 293 7,100  Level New York TRACON
Fri 07:05:11 PM 40.4333 -74.2000 52° Northeast 274 315 7,100 -744 Level New York TRACON
Fri 07:06:11 PM 40.4833 -74.1333 45° Northeast 272 313 5,600 -1,750 Descending New York TRACON
Fri 07:07:11 PM 40.5333 -74.0833 37° Northeast 250 288 3,600 -1,250 Descending New York TRACON
Fri 07:08:11 PM 40.6000 -74.0333 30° Northeast 242 278 3,100 -300 Descending New York TRACON
Fri 07:09:11 PM 40.6500 -73.9667 45° Northeast 261 300 3,000 -250 Descending New York TRACON
Fri 07:10:11 PM 40.7167 -73.9333 21° North 203 234 2,600 -192 Descending New York TRACON
Fri 07:11:16 PM 40.7333 -73.8833 66° East 156 180 2,600 -300 Level New York TRACON
Fri 07:12:11 PM 40.7500 -73.8333 66° East 158 182 2,000 -655 Descending New York TRACON

Login

Don't have an account? Register now (free) for customized features, flight alerts, and more!